Time;durP1;ratioP1;P1;durP2;ratioP2;P2;SDS_P1;SDS_P2;PMS_P1;PMS_P2;Temp;Humidity;BMP_temperature;BMP_pressure;BME280_temperature;BME280_humidity;BME280_pressure;Samples;Min_cycle;Max_cycle;Signal;HPM_P1;HPM_P2
2023/05/28 00:00:08;;;;;;;13.53;4.03;;;13.20;99.90;;;;;;5012913;28;20901;-77
2023/05/28 00:02:34;;;;;;;12.40;4.10;;;13.30;99.90;;;;;;5012633;28;20410;-77
2023/05/28 00:05:00;;;;;;;16.52;4.05;;;13.30;99.90;;;;;;5012932;28;20742;-77
2023/05/28 00:07:28;;;;;;;16.40;4.30;;;13.20;99.90;;;;;;5012236;28;20412;-77
2023/05/28 00:09:55;;;;;;;16.58;4.10;;;13.20;99.90;;;;;;5011816;28;20415;-77
2023/05/28 00:12:21;;;;;;;12.33;3.37;;;13.20;99.90;;;;;;5042869;28;20413;-77
2023/05/28 00:14:47;;;;;;;15.55;4.45;;;13.30;99.90;;;;;;5029451;28;20430;-77
2023/05/28 00:17:14;;;;;;;17.05;3.88;;;13.30;99.90;;;;;;5031384;28;20933;-77
2023/05/28 00:19:40;;;;;;;16.80;4.32;;;13.30;99.90;;;;;;5029269;28;20419;-77
2023/05/28 00:22:05;;;;;;;13.43;4.18;;;13.30;99.90;;;;;;5033194;28;20870;-76
2023/05/28 00:24:31;;;;;;;13.32;3.75;;;13.30;99.90;;;;;;5031468;28;20407;-77
2023/05/28 00:26:56;;;;;;;16.67;4.50;;;13.40;99.90;;;;;;5029951;28;20462;-76
2023/05/28 00:29:24;;;;;;;14.02;3.60;;;13.40;99.90;;;;;;5028520;28;20502;-77
2023/05/28 00:31:51;;;;;;;11.32;3.65;;;13.40;99.90;;;;;;5028924;28;20777;-77
2023/05/28 00:34:16;;;;;;;11.23;3.42;;;13.30;99.90;;;;;;5019941;28;20407;-76
2023/05/28 00:36:42;;;;;;;13.53;3.97;;;13.30;99.90;;;;;;5029294;28;20912;-76
2023/05/28 00:39:07;;;;;;;14.27;4.03;;;13.30;99.90;;;;;;5018399;28;21063;-77
2023/05/28 00:41:36;;;;;;;12.87;3.83;;;13.30;99.90;;;;;;5029500;28;20403;-77
2023/05/28 00:44:02;;;;;;;12.73;3.92;;;13.30;99.90;;;;;;5029200;28;20457;-77
2023/05/28 00:46:29;;;;;;;11.90;3.75;;;13.30;99.90;;;;;;5028977;28;20411;-77
2023/05/28 00:48:54;;;;;;;13.52;4.00;;;13.40;99.90;;;;;;5029431;28;20406;-77
2023/05/28 00:51:20;;;;;;;11.98;3.58;;;13.40;99.90;;;;;;5027121;28;20774;-77
2023/05/28 00:53:46;;;;;;;15.80;4.23;;;13.40;99.90;;;;;;5010912;28;20408;-77
2023/05/28 00:56:13;;;;;;;12.73;3.78;;;13.40;99.90;;;;;;5029185;28;20418;-77
2023/05/28 00:58:42;;;;;;;12.02;3.72;;;13.40;99.90;;;;;;5029649;28;20771;-77
2023/05/28 01:01:09;;;;;;;13.18;4.00;;;13.30;99.90;;;;;;5027837;28;20438;-77
2023/05/28 01:03:38;;;;;;;12.90;3.72;;;13.30;99.90;;;;;;5030077;28;20414;-77
2023/05/28 01:06:09;;;;;;;11.97;4.33;;;13.30;99.90;;;;;;5010798;28;20404;-77
2023/05/28 01:08:37;;;;;;;11.27;3.80;;;13.30;99.90;;;;;;5029562;28;20407;-77
2023/05/28 01:11:03;;;;;;;13.82;3.75;;;13.30;99.90;;;;;;5029061;28;20498;-77
2023/05/28 01:13:30;;;;;;;14.35;4.25;;;13.30;99.90;;;;;;5027887;28;20442;-77
2023/05/28 01:15:56;;;;;;;13.17;4.13;;;13.20;99.90;;;;;;5028672;28;20417;-77
2023/05/28 01:18:22;;;;;;;15.63;3.90;;;13.30;99.90;;;;;;5029410;28;20464;-77
2023/05/28 01:20:48;;;;;;;13.27;4.00;;;13.20;99.90;;;;;;5038912;28;20411;-77
2023/05/28 01:23:18;;;;;;;12.82;3.58;;;13.20;99.90;;;;;;5027624;28;20411;-77
2023/05/28 01:25:44;;;;;;;13.02;3.75;;;13.20;99.90;;;;;;5017135;28;20464;-76
2023/05/28 01:28:13;;;;;;;12.75;3.90;;;13.30;99.90;;;;;;5032105;28;20486;-77
2023/05/28 01:30:40;;;;;;;11.15;3.38;;;13.30;99.90;;;;;;4986365;28;20426;-76
2023/05/28 01:33:06;;;;;;;16.20;4.20;;;13.20;99.90;;;;;;5032322;28;20450;-76
2023/05/28 01:35:32;;;;;;;15.07;4.17;;;13.30;99.90;;;;;;5019600;28;20411;-76
2023/05/28 01:38:02;;;;;;;14.83;3.80;;;13.30;99.90;;;;;;5029967;28;20444;-77
2023/05/28 01:40:29;;;;;;;18.50;4.40;;;13.30;99.90;;;;;;5029397;28;20421;-76
2023/05/28 01:42:56;;;;;;;16.48;4.05;;;13.20;99.90;;;;;;5012409;28;20464;-77
2023/05/28 01:45:23;;;;;;;13.60;4.10;;;13.20;99.90;;;;;;5027364;28;20411;-77
2023/05/28 01:47:49;;;;;;;12.02;3.88;;;13.20;99.90;;;;;;5012493;28;20777;-77
2023/05/28 01:50:15;;;;;;;15.35;3.97;;;13.20;99.90;;;;;;5019761;28;20413;-77
2023/05/28 01:52:41;;;;;;;16.05;4.28;;;13.20;99.90;;;;;;5021885;28;20421;-77
2023/05/28 01:55:08;;;;;;;12.10;3.67;;;13.20;99.90;;;;;;5010457;28;20406;-77
2023/05/28 01:57:35;;;;;;;16.52;4.50;;;13.20;99.90;;;;;;5015992;28;20436;-76
2023/05/28 02:00:00;;;;;;;15.52;4.43;;;13.10;99.90;;;;;;5031140;28;20410;-77
2023/05/28 02:02:26;;;;;;;16.45;3.88;;;13.20;99.90;;;;;;5033124;28;20397;-77
2023/05/28 02:04:53;;;;;;;16.53;4.37;;;13.10;99.90;;;;;;5023024;28;20407;-77
2023/05/28 02:07:19;;;;;;;16.45;4.30;;;13.10;99.90;;;;;;5029997;28;20406;-77
2023/05/28 02:09:45;;;;;;;12.83;4.13;;;13.10;99.90;;;;;;5014002;28;20415;-77
2023/05/28 02:12:11;;;;;;;16.35;4.15;;;13.10;99.90;;;;;;5014245;28;20419;-77
2023/05/28 02:14:37;;;;;;;14.20;4.18;;;13.10;99.90;;;;;;5030826;28;20442;-77
2023/05/28 02:17:03;;;;;;;12.25;4.18;;;13.10;99.90;;;;;;5026136;28;20470;-77
2023/05/28 02:19:28;;;;;;;13.60;3.90;;;13.10;99.90;;;;;;5022019;28;20399;-77
2023/05/28 02:21:55;;;;;;;13.13;3.90;;;13.00;99.90;;;;;;5027495;28;20411;-77
2023/05/28 02:24:21;;;;;;;11.50;4.18;;;13.00;99.90;;;;;;4993682;28;20462;-77
2023/05/28 02:26:47;;;;;;;16.23;4.25;;;13.00;99.90;;;;;;5026946;28;20414;-77
2023/05/28 02:29:13;;;;;;;13.52;3.80;;;13.00;99.90;;;;;;5010319;28;20407;-77
2023/05/28 02:31:38;;;;;;;13.67;4.37;;;13.00;99.90;;;;;;5008311;28;20931;-76
2023/05/28 02:34:04;;;;;;;12.63;4.55;;;13.00;99.90;;;;;;5009514;28;20407;-77
2023/05/28 02:36:30;;;;;;;16.93;4.37;;;13.00;99.90;;;;;;5026645;28;20797;-77
2023/05/28 02:38:55;;;;;;;15.85;4.20;;;12.90;99.90;;;;;;5029926;28;20438;-76
2023/05/28 02:41:21;;;;;;;14.70;4.33;;;12.90;99.90;;;;;;5026979;28;20425;-77
2023/05/28 02:43:47;;;;;;;15.77;4.18;;;12.90;99.90;;;;;;5009564;28;20418;-77
2023/05/28 02:46:13;;;;;;;15.93;4.60;;;12.90;99.90;;;;;;5015160;28;20504;-77
2023/05/28 02:48:39;;;;;;;12.07;3.87;;;12.90;99.90;;;;;;5009359;28;20418;-77
2023/05/28 02:51:05;;;;;;;15.10;4.15;;;12.90;99.90;;;;;;4994897;28;20418;-77
2023/05/28 02:53:31;;;;;;;16.08;4.28;;;12.90;99.90;;;;;;5013464;28;20411;-77
2023/05/28 02:55:57;;;;;;;13.18;3.88;;;12.90;99.90;;;;;;5013029;28;20944;-76
2023/05/28 02:58:23;;;;;;;15.03;4.37;;;13.00;99.90;;;;;;5034791;28;20431;-76
2023/05/28 03:00:49;;;;;;;14.07;4.07;;;12.90;99.90;;;;;;5034314;28;20414;-76
2023/05/28 03:03:15;;;;;;;15.07;4.43;;;12.90;99.90;;;;;;5030990;28;20832;-76
2023/05/28 03:05:41;;;;;;;11.73;3.80;;;12.90;99.90;;;;;;5030335;28;20411;-76
2023/05/28 03:08:06;;;;;;;16.08;4.07;;;12.90;99.90;;;;;;5031161;28;20418;-76
2023/05/28 03:10:32;;;;;;;13.88;3.97;;;12.90;99.90;;;;;;5030844;28;20407;-76
2023/05/28 03:12:58;;;;;;;15.23;4.00;;;12.90;99.90;;;;;;5030789;28;20409;-77
2023/05/28 03:15:26;;;;;;;13.98;3.90;;;12.90;99.90;;;;;;5016426;28;20439;-77
2023/05/28 03:17:53;;;;;;;12.80;4.07;;;12.90;99.90;;;;;;5034453;28;20521;-77
2023/05/28 03:20:19;;;;;;;12.90;3.67;;;12.80;99.90;;;;;;5012738;28;20417;-77
2023/05/28 03:22:47;;;;;;;10.90;3.50;;;12.90;99.90;;;;;;5013012;28;20407;-76
2023/05/28 03:25:12;;;;;;;12.18;4.03;;;12.80;99.90;;;;;;5031144;28;20402;-77
2023/05/28 03:27:38;;;;;;;15.40;4.10;;;12.80;99.90;;;;;;5013077;28;20841;-76
2023/05/28 03:30:04;;;;;;;12.80;4.13;;;12.80;99.90;;;;;;5012932;28;20414;-76
2023/05/28 03:32:30;;;;;;;12.10;3.55;;;12.70;99.90;;;;;;5003794;28;20411;-77
2023/05/28 03:34:56;;;;;;;15.60;3.80;;;12.70;99.90;;;;;;5029495;28;20403;-76
2023/05/28 03:37:22;;;;;;;14.18;3.75;;;12.70;99.90;;;;;;5012667;28;20435;-77
2023/05/28 03:39:48;;;;;;;10.35;3.42;;;12.70;99.90;;;;;;5021109;28;20403;-77
2023/05/28 03:42:13;;;;;;;12.17;3.30;;;12.70;99.90;;;;;;5031012;28;20489;-77
2023/05/28 03:44:39;;;;;;;11.32;3.30;;;12.70;99.90;;;;;;5031132;28;20415;-77
2023/05/28 03:47:05;;;;;;;12.43;3.67;;;12.70;99.90;;;;;;5012299;28;20410;-77
2023/05/28 03:49:30;;;;;;;13.93;3.63;;;12.70;99.90;;;;;;5030721;28;20422;-77
2023/05/28 03:51:57;;;;;;;12.85;3.72;;;12.70;99.90;;;;;;5029955;28;20403;-77
2023/05/28 03:54:22;;;;;;;13.65;3.42;;;12.80;99.90;;;;;;5012350;28;20415;-77
2023/05/28 03:56:48;;;;;;;14.23;3.90;;;12.80;99.90;;;;;;5020822;28;20462;-77
2023/05/28 03:59:13;;;;;;;12.20;3.70;;;12.70;99.90;;;;;;5012126;28;20419;-77
2023/05/28 04:01:39;;;;;;;12.27;4.10;;;12.80;99.90;;;;;;5012435;28;20426;-76
2023/05/28 04:04:05;;;;;;;13.57;3.75;;;12.80;99.90;;;;;;5017771;28;20800;-77
2023/05/28 04:06:31;;;;;;;15.03;4.10;;;12.80;99.90;;;;;;5011636;28;21273;-76
2023/05/28 04:08:57;;;;;;;14.63;3.93;;;12.80;99.90;;;;;;5012388;28;20484;-77
2023/05/28 04:11:24;;;;;;;14.30;3.67;;;12.80;99.90;;;;;;5029558;28;21157;-77
2023/05/28 04:13:51;;;;;;;12.70;3.60;;;12.80;99.90;;;;;;5012239;28;20411;-77
2023/05/28 04:16:16;;;;;;;13.77;4.03;;;12.80;99.90;;;;;;5013160;28;20418;-77
2023/05/28 04:18:42;;;;;;;14.83;3.80;;;12.90;99.90;;;;;;5015614;28;20446;-77
2023/05/28 04:21:08;;;;;;;12.68;4.10;;;12.90;99.90;;;;;;5038295;28;20550;-76
2023/05/28 04:23:34;;;;;;;15.00;3.80;;;12.90;99.90;;;;;;5009048;28;20491;-77
2023/05/28 04:25:59;;;;;;;12.00;3.73;;;12.90;99.90;;;;;;5020296;28;20407;-76
2023/05/28 04:28:27;;;;;;;13.48;3.85;;;12.90;99.90;;;;;;4993415;28;20423;-77
2023/05/28 04:31:00;;;;;;;9.50;3.65;;;13.00;99.90;;;;;;5014067;28;20490;-76
2023/05/28 04:33:28;;;;;;;12.85;3.53;;;13.00;99.90;;;;;;5013706;28;20943;-77
2023/05/28 04:35:54;;;;;;;11.63;3.80;;;13.10;99.90;;;;;;5009682;28;20423;-76
2023/05/28 04:38:20;;;;;;;13.03;3.47;;;13.10;99.90;;;;;;5009075;28;20452;-77
2023/05/28 04:40:46;;;;;;;13.85;3.80;;;13.10;99.90;;;;;;4994157;28;20895;-76
2023/05/28 04:43:11;;;;;;;14.53;3.73;;;13.10;99.90;;;;;;5012785;28;20408;-76
2023/05/28 04:45:37;;;;;;;13.27;4.20;;;13.20;99.90;;;;;;5007954;28;20882;-77
2023/05/28 04:48:04;;;;;;;13.83;4.23;;;13.20;99.90;;;;;;5010497;28;20407;-76
2023/05/28 04:50:30;;;;;;;15.68;4.13;;;13.20;99.90;;;;;;5010332;28;20937;-77
2023/05/28 04:52:55;;;;;;;11.77;3.85;;;13.30;99.90;;;;;;5009589;28;20414;-76
2023/05/28 04:55:22;;;;;;;12.00;3.93;;;13.30;99.90;;;;;;5001594;28;20420;-77
2023/05/28 04:57:48;;;;;;;12.15;3.80;;;13.30;99.90;;;;;;5011391;28;20878;-77
2023/05/28 05:00:13;;;;;;;13.17;3.80;;;13.40;99.90;;;;;;5007804;28;20409;-77
2023/05/28 05:02:43;;;;;;;10.98;3.72;;;13.40;99.90;;;;;;5011986;28;20413;-76
2023/05/28 05:05:09;;;;;;;12.45;3.85;;;13.50;99.90;;;;;;5011887;28;20487;-77
2023/05/28 05:07:36;;;;;;;13.50;4.07;;;13.50;99.90;;;;;;5010365;28;20409;-77
2023/05/28 05:10:05;;;;;;;12.50;3.87;;;13.50;99.90;;;;;;5004293;28;20499;-77
2023/05/28 05:12:31;;;;;;;13.80;3.85;;;13.50;99.90;;;;;;5007429;28;20496;-77
2023/05/28 05:14:56;;;;;;;9.73;3.25;;;13.50;99.90;;;;;;5008557;28;20900;-77
2023/05/28 05:17:22;;;;;;;14.20;3.97;;;13.50;99.90;;;;;;5003380;28;20431;-77
2023/05/28 05:19:47;;;;;;;14.98;4.18;;;13.60;99.90;;;;;;5010472;28;20886;-77
2023/05/28 05:22:13;;;;;;;12.80;3.90;;;13.60;99.90;;;;;;5006795;28;20409;-77
2023/05/28 05:24:39;;;;;;;12.10;3.72;;;13.70;99.90;;;;;;4996416;28;20427;-77
2023/05/28 05:27:06;;;;;;;12.67;3.60;;;13.70;99.90;;;;;;5007496;28;20420;-77
2023/05/28 05:29:31;;;;;;;11.45;3.53;;;13.80;99.90;;;;;;5007925;28;20408;-76
2023/05/28 05:31:57;;;;;;;11.73;3.45;;;13.80;99.90;;;;;;5006610;28;20965;-77
2023/05/28 05:34:23;;;;;;;11.03;3.30;;;13.90;99.90;;;;;;4997521;28;20453;-76
2023/05/28 05:36:49;;;;;;;11.77;3.50;;;13.90;99.90;;;;;;5006133;28;20436;-77
2023/05/28 05:39:14;;;;;;;9.87;3.50;;;13.90;99.90;;;;;;5008446;28;20500;-77
2023/05/28 05:41:40;;;;;;;13.15;3.75;;;13.90;99.90;;;;;;5006554;28;20935;-77
2023/05/28 05:44:06;;;;;;;14.52;4.13;;;13.90;99.90;;;;;;5004416;28;20408;-77
2023/05/28 05:46:31;;;;;;;12.60;3.90;;;13.90;99.90;;;;;;5007195;28;20930;-77
2023/05/28 05:48:57;;;;;;;13.68;4.10;;;13.80;99.90;;;;;;5008669;28;20409;-77
2023/05/28 05:51:23;;;;;;;14.07;4.03;;;13.90;99.90;;;;;;5007882;28;20504;-77
2023/05/28 05:53:48;;;;;;;10.95;4.15;;;13.80;99.90;;;;;;5008212;28;20891;-76
2023/05/28 05:56:15;;;;;;;12.47;4.20;;;13.80;99.90;;;;;;5007835;28;20806;-77
2023/05/28 05:58:40;;;;;;;13.07;4.00;;;13.80;99.90;;;;;;5009621;28;20452;-77
2023/05/28 06:01:06;;;;;;;11.40;3.90;;;13.90;99.90;;;;;;5009935;28;20818;-76
2023/05/28 06:03:32;;;;;;;13.27;3.95;;;13.90;99.90;;;;;;5007737;28;20413;-77
2023/05/28 06:05:58;;;;;;;10.57;3.70;;;13.90;99.90;;;;;;5006665;28;20412;-77
2023/05/28 06:08:23;;;;;;;12.57;3.85;;;14.00;99.90;;;;;;5011098;28;20397;-77
2023/05/28 06:10:49;;;;;;;9.53;3.47;;;14.00;99.90;;;;;;5013543;28;20417;-77
2023/05/28 06:13:15;;;;;;;10.85;3.47;;;14.10;99.90;;;;;;5007688;28;20441;-77
2023/05/28 06:15:41;;;;;;;13.23;4.00;;;14.10;99.90;;;;;;5007732;28;20931;-77
2023/05/28 06:18:07;;;;;;;9.37;3.40;;;14.10;99.90;;;;;;5010781;28;20455;-77
2023/05/28 06:20:33;;;;;;;8.88;3.28;;;14.10;99.90;;;;;;5017035;28;20463;-77
2023/05/28 06:22:58;;;;;;;10.87;3.67;;;14.10;99.90;;;;;;5007727;28;20812;-77
2023/05/28 06:25:25;;;;;;;11.18;3.03;;;14.10;99.90;;;;;;5006471;28;20416;-77
2023/05/28 06:27:51;;;;;;;10.43;3.70;;;14.10;99.90;;;;;;5000094;28;20417;-77
2023/05/28 06:30:17;;;;;;;10.32;3.28;;;14.20;99.90;;;;;;5007850;28;20407;-77
2023/05/28 06:32:43;;;;;;;8.95;3.30;;;14.20;99.90;;;;;;5003978;28;20432;-76
2023/05/28 06:35:09;;;;;;;8.83;3.27;;;14.30;99.90;;;;;;5014980;28;20418;-76
2023/05/28 06:37:34;;;;;;;10.13;3.00;;;14.20;99.90;;;;;;5031378;28;20435;-77
2023/05/28 06:40:00;;;;;;;8.65;3.25;;;14.30;99.90;;;;;;5005356;28;20468;-76
2023/05/28 06:42:26;;;;;;;12.02;3.60;;;14.40;99.90;;;;;;5013365;28;20418;-77
2023/05/28 06:44:51;;;;;;;12.03;3.60;;;14.40;99.90;;;;;;5003439;28;20414;-77
2023/05/28 06:47:17;;;;;;;9.02;3.22;;;14.40;99.90;;;;;;5031209;28;20410;-77
2023/05/28 06:49:43;;;;;;;10.43;3.37;;;14.40;99.90;;;;;;5034136;28;20800;-77
2023/05/28 06:52:08;;;;;;;9.40;2.85;;;14.50;99.90;;;;;;5034487;28;20912;-77
2023/05/28 06:54:34;;;;;;;10.50;2.80;;;14.50;99.90;;;;;;5037380;28;20609;-75
2023/05/28 06:57:00;;;;;;;9.75;3.25;;;14.50;99.90;;;;;;5034467;28;21327;-75
2023/05/28 06:59:25;;;;;;;9.17;2.80;;;14.60;99.90;;;;;;5028072;28;20407;-76
2023/05/28 07:01:51;;;;;;;7.13;2.60;;;14.60;99.90;;;;;;5028151;28;20407;-78
2023/05/28 07:04:17;;;;;;;7.80;2.67;;;14.60;99.90;;;;;;5026376;28;20414;-78
2023/05/28 07:06:42;;;;;;;7.45;2.55;;;14.70;99.90;;;;;;5022599;28;20431;-77
2023/05/28 07:09:08;;;;;;;7.68;2.50;;;14.70;99.90;;;;;;5028614;28;20414;-78
2023/05/28 07:11:34;;;;;;;8.90;2.70;;;14.80;99.90;;;;;;5024827;28;20404;-77
2023/05/28 07:14:00;;;;;;;9.00;2.88;;;14.90;99.90;;;;;;5030970;28;20406;-78
2023/05/28 07:16:25;;;;;;;9.07;2.50;;;15.00;99.90;;;;;;5032159;28;20407;-78
2023/05/28 07:18:51;;;;;;;8.60;2.53;;;15.00;99.90;;;;;;5031582;28;20513;-78
2023/05/28 07:21:17;;;;;;;6.97;2.43;;;15.10;99.90;;;;;;5002717;28;20440;-78
2023/05/28 07:23:42;;;;;;;8.90;2.58;;;15.10;99.90;;;;;;5029413;28;20819;-76
2023/05/28 07:26:08;;;;;;;6.37;2.30;;;15.20;99.90;;;;;;5032740;28;20761;-75
2023/05/28 07:28:33;;;;;;;5.65;2.25;;;15.20;99.90;;;;;;5014605;28;20889;-75
2023/05/28 07:30:59;;;;;;;5.80;2.03;;;15.30;99.90;;;;;;5014988;28;20406;-75
2023/05/28 07:33:25;;;;;;;5.28;2.10;;;15.30;99.90;;;;;;5014888;28;20418;-76
2023/05/28 07:35:50;;;;;;;5.63;2.20;;;15.40;99.90;;;;;;5012568;28;20545;-78
2023/05/28 07:38:16;;;;;;;6.70;1.92;;;15.40;99.90;;;;;;5013878;28;20442;-78
2023/05/28 07:40:42;;;;;;;5.23;2.13;;;15.50;99.90;;;;;;5012959;28;21309;-75
2023/05/28 07:43:08;;;;;;;7.47;2.50;;;15.60;99.90;;;;;;4996006;28;20443;-76
2023/05/28 07:45:34;;;;;;;6.43;2.03;;;15.60;99.90;;;;;;5029598;28;20430;-76
2023/05/28 07:48:00;;;;;;;5.88;2.10;;;15.70;99.90;;;;;;5028924;28;20413;-76
2023/05/28 07:50:26;;;;;;;6.70;2.25;;;15.80;99.90;;;;;;5031792;28;20466;-76
2023/05/28 07:52:52;;;;;;;6.32;2.50;;;15.80;99.90;;;;;;5029544;28;20494;-76
2023/05/28 07:55:18;;;;;;;6.50;2.17;;;15.90;99.90;;;;;;4995622;28;20502;-76
2023/05/28 07:57:44;;;;;;;7.40;2.50;;;16.00;99.90;;;;;;5029757;28;20435;-76
2023/05/28 08:00:15;;;;;;;5.60;2.30;;;16.00;99.90;;;;;;5030450;28;20498;-77
2023/05/28 08:02:42;;;;;;;9.07;2.53;;;16.10;99.90;;;;;;5032479;28;20414;-77
2023/05/28 08:05:08;;;;;;;8.77;2.85;;;16.10;99.90;;;;;;5042026;28;20410;-77
2023/05/28 08:07:34;;;;;;;9.00;2.63;;;16.20;99.90;;;;;;5038237;28;20949;-78
2023/05/28 08:10:00;;;;;;;10.48;3.33;;;16.10;99.90;;;;;;5045236;28;20904;-77
2023/05/28 08:12:26;;;;;;;8.50;3.00;;;16.10;99.90;;;;;;5033945;28;20473;-78
2023/05/28 08:14:52;;;;;;;9.50;3.35;;;16.20;99.90;;;;;;5026058;28;20419;-77
2023/05/28 08:17:22;;;;;;;10.67;3.43;;;16.20;99.90;;;;;;5042634;28;20518;-77
2023/05/28 08:19:48;;;;;;;8.70;3.45;;;16.20;99.90;;;;;;5043428;28;20440;-77
2023/05/28 08:22:13;;;;;;;8.90;2.95;;;16.30;99.90;;;;;;5027239;28;20806;-77
2023/05/28 08:24:39;;;;;;;8.43;3.23;;;16.30;99.90;;;;;;5025902;28;20417;-78
2023/05/28 08:27:06;;;;;;;8.52;3.60;;;16.40;99.90;;;;;;5039595;28;20464;-78
2023/05/28 08:29:32;;;;;;;10.30;3.70;;;16.40;99.90;;;;;;5027257;28;20409;-78
2023/05/28 08:31:58;;;;;;;8.20;3.30;;;16.50;99.90;;;;;;5021496;28;20423;-78
2023/05/28 08:34:25;;;;;;;8.43;3.42;;;16.50;99.90;;;;;;5012605;28;20473;-75
2023/05/28 08:36:51;;;;;;;9.10;3.55;;;16.50;99.90;;;;;;5020127;28;20411;-76
2023/05/28 08:39:17;;;;;;;10.47;3.63;;;16.50;99.90;;;;;;5030249;28;20438;-77
2023/05/28 08:41:43;;;;;;;10.85;4.03;;;16.50;99.90;;;;;;5029399;28;20965;-76
2023/05/28 08:44:09;;;;;;;11.45;3.70;;;16.60;99.90;;;;;;5011614;28;20499;-77
2023/05/28 08:46:36;;;;;;;7.60;3.40;;;16.70;99.90;;;;;;5028663;28;20488;-77
2023/05/28 08:49:03;;;;;;;8.63;3.38;;;16.80;99.90;;;;;;5037374;28;20447;-75
2023/05/28 08:51:32;;;;;;;11.80;4.00;;;16.80;99.90;;;;;;5022107;28;20424;-77
2023/05/28 08:54:00;;;;;;;9.10;4.10;;;17.00;99.90;;;;;;5035279;28;20904;-77
2023/05/28 08:56:26;;;;;;;9.85;3.97;;;17.10;99.90;;;;;;5015933;28;20782;-77
2023/05/28 08:58:52;;;;;;;11.23;3.77;;;17.10;99.90;;;;;;5015211;28;20534;-77
2023/05/28 09:01:19;;;;;;;10.30;3.78;;;17.10;99.90;;;;;;5018932;28;20561;-77
2023/05/28 09:03:45;;;;;;;9.27;3.90;;;17.10;99.90;;;;;;5033176;28;21362;-77
2023/05/28 09:06:12;;;;;;;11.48;3.97;;;17.20;99.90;;;;;;4996520;28;20409;-77
2023/05/28 09:08:38;;;;;;;11.13;4.28;;;17.30;99.90;;;;;;5032104;28;20986;-77
2023/05/28 09:11:11;;;;;;;10.60;4.37;;;17.40;99.90;;;;;;5024113;28;20503;-77
2023/05/28 09:13:44;;;;;;;9.52;4.00;;;17.50;99.90;;;;;;5026733;28;20508;-77
2023/05/28 09:16:11;;;;;;;12.93;4.85;;;17.60;99.90;;;;;;5027594;28;20837;-77
2023/05/28 09:18:37;;;;;;;9.43;3.97;;;17.70;99.90;;;;;;5024721;28;20467;-77
2023/05/28 09:21:11;;;;;;;10.38;3.95;;;17.80;99.90;;;;;;5029632;28;20494;-77
2023/05/28 09:23:38;;;;;;;8.83;4.13;;;17.90;99.90;;;;;;5004217;28;20417;-77
2023/05/28 09:26:09;;;;;;;8.77;3.90;;;18.10;99.90;;;;;;5028815;28;20438;-78
2023/05/28 09:28:35;;;;;;;12.25;4.68;;;18.30;99.90;;;;;;5008117;28;20434;-78
2023/05/28 09:31:05;;;;;;;10.55;4.07;;;18.60;99.90;;;;;;5009110;28;20409;-76
2023/05/28 09:33:33;;;;;;;8.02;3.60;;;18.90;99.90;;;;;;5009577;28;20426;-78
2023/05/28 09:36:02;;;;;;;9.43;4.05;;;19.10;99.90;;;;;;5018534;28;20969;-78
2023/05/28 09:38:38;;;;;;;;;;;19.30;99.90;;;;;;5023919;28;20053;-78
2023/05/28 09:41:04;;;;;;;8.52;3.05;;;19.60;99.90;;;;;;5029350;28;19921;-78
2023/05/28 09:43:29;;;;;;;11.68;4.40;;;19.80;99.90;;;;;;5022070;28;20425;-78
2023/05/28 09:46:08;;;;;;;8.82;3.88;;;20.00;99.90;;;;;;5023202;28;20430;-78
2023/05/28 09:48:34;;;;;;;10.02;3.92;;;20.20;99.90;;;;;;5027276;28;20419;-76
2023/05/28 09:51:02;;;;;;;;;;;20.30;99.90;;;;;;5020071;28;20500;-77
2023/05/28 09:53:29;;;;;;;;;;;20.50;99.90;;;;;;5034236;28;19927;-77
2023/05/28 09:55:56;;;;;;;;;;;20.60;99.90;;;;;;5032936;28;20401;-76
2023/05/28 09:58:22;;;;;;;;;;;20.80;99.90;;;;;;5033996;28;19921;-77
2023/05/28 10:00:52;;;;;;;;;;;20.90;99.90;;;;;;5011111;28;19925;-77
2023/05/28 10:03:33;;;;;;;;;;;21.00;99.90;;;;;;5027852;28;19932;-76
2023/05/28 10:06:04;;;;;;;;;;;21.20;99.90;;;;;;5001077;28;19925;-77
2023/05/28 10:08:36;;;;;;;;;;;21.30;99.90;;;;;;5006863;28;19921;-77
2023/05/28 10:11:03;;;;;;;;;;;21.30;99.90;;;;;;4995010;28;19957;-77
2023/05/28 10:13:30;;;;;;;;;;;21.30;99.90;;;;;;5008257;28;20647;-77
2023/05/28 10:15:55;;;;;;;;;;;21.30;99.90;;;;;;5026141;28;19925;-77
2023/05/28 10:18:22;;;;;;;;;;;21.30;99.90;;;;;;5023715;28;19922;-77
2023/05/28 10:20:48;;;;;;;;;;;21.40;99.90;;;;;;5031365;28;19995;-77
2023/05/28 10:23:14;;;;;;;;;;;21.50;99.90;;;;;;5032361;28;20648;-77
2023/05/28 10:25:40;;;;;;;;;;;21.60;99.90;;;;;;5029340;28;19925;-76
2023/05/28 10:28:06;;;;;;;6.70;2.73;;;21.70;99.90;;;;;;5029510;28;19928;-77
2023/05/28 10:30:36;;;;;;;6.55;3.00;;;21.80;99.90;;;;;;5010615;28;20932;-77
2023/05/28 10:33:15;;;;;;;10.63;3.38;;;21.90;99.20;;;;;;5027479;28;20423;-77
2023/05/28 10:35:55;;;;;;;6.22;3.13;;;22.00;99.70;;;;;;5001461;28;20982;-77
2023/05/28 10:38:21;;;;;;;9.73;3.33;;;22.10;99.60;;;;;;5027707;28;20439;-77
2023/05/28 10:40:48;;;;;;;7.13;2.93;;;22.20;99.20;;;;;;4994236;28;20766;-77
2023/05/28 10:43:39;;;;;;;6.67;2.73;;;22.30;97.70;;;;;;4993353;28;20425;-77
2023/05/28 10:46:19;;;;;;;6.22;2.97;;;22.20;96.90;;;;;;5028951;28;20473;-76
2023/05/28 10:49:03;;;;;;;;;;;22.20;96.80;;;;;;5011347;28;20037;-77
2023/05/28 10:51:47;;;;;;;;;;;22.30;95.50;;;;;;5009431;28;19921;-77
2023/05/28 10:54:20;;;;;;;;;;;22.30;95.80;;;;;;5029820;28;19932;-77
2023/05/28 10:57:04;;;;;;;;;;;22.40;95.80;;;;;;5022035;28;19921;-77
2023/05/28 10:59:39;;;;;;;;;;;22.50;96.30;;;;;;5029747;28;20662;-76
2023/05/28 11:02:08;;;;;;;;;;;22.60;95.30;;;;;;5012743;28;20295;-77
2023/05/28 11:04:36;;;;;;;;;;;22.70;95.90;;;;;;5024890;28;20012;-77
2023/05/28 11:07:02;;;;;;;;;;;22.90;96.00;;;;;;5010866;28;20515;-76
2023/05/28 11:09:28;;;;;;;;;;;22.90;95.40;;;;;;5030614;28;19932;-77
2023/05/28 11:11:57;;;;;;;;;;;22.90;95.00;;;;;;5030573;28;20318;-77
2023/05/28 11:14:23;;;;;;;;;;;23.00;94.40;;;;;;5033492;28;20012;-77
2023/05/28 11:16:48;;;;;;;;;;;23.10;94.30;;;;;;5035362;28;20003;-77
2023/05/28 11:19:14;;;;;;;;;;;23.00;94.40;;;;;;5035549;28;19925;-77
2023/05/28 11:21:49;;;;;;;;;;;22.90;94.30;;;;;;5031644;28;19920;-77
2023/05/28 11:24:15;;;;;;;;;;;23.00;94.40;;;;;;5005323;28;19924;-77
2023/05/28 11:26:40;;;;;;;;;;;23.00;93.40;;;;;;5032162;28;19928;-77
2023/05/28 11:29:06;;;;;;;;;;;23.00;94.90;;;;;;5032801;28;19928;-77
2023/05/28 11:31:41;;;;;;;;;;;23.00;93.90;;;;;;5032251;28;19932;-77
2023/05/28 11:34:07;;;;;;;;;;;23.10;94.10;;;;;;5035551;28;20415;-76
2023/05/28 11:36:40;;;;;;;;;;;23.20;94.50;;;;;;5022915;28;20326;-76
2023/05/28 11:39:05;;;;;;;;;;;23.20;95.00;;;;;;5014244;28;20438;-77
2023/05/28 11:41:32;;;;;;;5.25;2.22;;;23.20;93.80;;;;;;5031975;28;20012;-77
2023/05/28 11:43:58;;;;;;;8.40;2.70;;;23.30;93.90;;;;;;5022488;28;20500;-76
2023/05/28 11:46:24;;;;;;;5.97;2.20;;;23.30;93.90;;;;;;5012490;28;20490;-77
2023/05/28 11:48:50;;;;;;;7.47;2.50;;;23.30;94.50;;;;;;5030304;28;20430;-76
2023/05/28 11:51:21;;;;;;;6.17;2.53;;;23.30;94.50;;;;;;5030215;28;20403;-77
2023/05/28 11:53:47;;;;;;;6.95;2.45;;;23.30;94.20;;;;;;5030093;28;20407;-77
2023/05/28 11:56:13;;;;;;;6.63;2.33;;;23.10;93.80;;;;;;5011703;28;20423;-76
2023/05/28 11:58:44;;;;;;;8.05;2.17;;;23.00;93.40;;;;;;5033580;28;20825;-77
2023/05/28 12:01:15;;;;;;;7.00;2.30;;;23.00;94.40;;;;;;5012035;28;20428;-76
2023/05/28 12:03:41;;;;;;;7.68;2.67;;;23.20;94.40;;;;;;5026438;28;20411;-77
2023/05/28 12:06:06;;;;;;;8.77;2.50;;;23.40;93.90;;;;;;5030313;28;20427;-77
2023/05/28 12:08:32;;;;;;;7.90;2.25;;;23.50;94.10;;;;;;5033397;28;20481;-78
2023/05/28 12:11:02;;;;;;;7.03;2.20;;;23.60;92.50;;;;;;5031043;28;20822;-77
2023/05/28 12:13:35;;;;;;;7.35;2.40;;;23.50;92.60;;;;;;5022473;28;20417;-74
2023/05/28 12:16:11;;;;;;;7.80;2.35;;;23.30;93.10;;;;;;4995562;28;20415;-74
2023/05/28 12:18:41;;;;;;;8.85;2.90;;;23.40;92.90;;;;;;5028308;28;20431;-73
2023/05/28 12:21:13;;;;;;;8.60;2.42;;;23.40;93.00;;;;;;5022192;28;20424;-73
2023/05/28 12:23:39;;;;;;;7.82;2.10;;;23.30;92.70;;;;;;5002239;28;20449;-74
2023/05/28 12:26:10;;;;;;;9.73;2.58;;;23.30;92.40;;;;;;4989478;28;20419;-74
2023/05/28 12:28:39;;;;;;;7.05;2.03;;;23.20;92.60;;;;;;5004004;28;20443;-73
2023/05/28 12:31:05;;;;;;;7.28;2.40;;;23.20;92.40;;;;;;5030068;28;20422;-74
2023/05/28 12:33:31;;;;;;;8.88;2.45;;;23.20;92.30;;;;;;4992577;28;20417;-74
2023/05/28 12:35:59;;;;;;;9.10;2.67;;;23.10;92.40;;;;;;5028083;28;20461;-73
2023/05/28 12:38:25;;;;;;;;;;;23.10;92.20;;;;;;5012482;28;20045;-74
2023/05/28 12:40:51;;;;;;;;;;;23.20;93.10;;;;;;5014148;28;19928;-74
2023/05/28 12:43:16;;;;;;;;;;;23.30;92.40;;;;;;5033055;28;19955;-74
2023/05/28 12:45:42;;;;;;;;;;;23.40;93.60;;;;;;5013174;28;19972;-74
2023/05/28 12:48:08;;;;;;;;;;;23.50;92.10;;;;;;4988556;28;20000;-73
2023/05/28 12:50:34;;;;;;;;;;;23.30;92.90;;;;;;4994750;28;20504;-74